createdAt,value
2023-05-25T00:01:37.875Z,2.57
2023-05-25T00:04:05.405Z,3.43
2023-05-25T00:06:32.960Z,3.03
2023-05-25T00:09:01.644Z,2.80
2023-05-25T00:11:28.986Z,3.07
2023-05-25T00:13:56.251Z,3.33
2023-05-25T00:16:23.589Z,2.70
2023-05-25T00:18:50.987Z,3.53
2023-05-25T00:21:18.346Z,3.20
2023-05-25T00:23:45.658Z,3.73
2023-05-25T00:26:14.405Z,3.67
2023-05-25T00:28:41.658Z,3.40
2023-05-25T00:31:09.042Z,3.67
2023-05-25T00:33:36.998Z,3.00
2023-05-25T00:36:05.497Z,4.03
2023-05-25T00:38:32.900Z,3.40
2023-05-25T00:41:00.212Z,4.73
2023-05-25T00:43:28.821Z,4.30
2023-05-25T00:45:56.544Z,4.00
2023-05-25T00:48:24.666Z,4.43
2023-05-25T00:50:54.464Z,4.80
2023-05-25T00:53:21.858Z,4.33
2023-05-25T00:55:50.976Z,5.10
2023-05-25T00:58:21.279Z,4.67
2023-05-25T01:00:51.548Z,4.77
2023-05-25T01:03:21.405Z,5.27
2023-05-25T01:05:52.122Z,4.80
2023-05-25T01:08:20.553Z,4.53
2023-05-25T01:10:49.382Z,3.30
2023-05-25T01:13:18.091Z,3.97
2023-05-25T01:15:45.977Z,4.60
2023-05-25T01:18:15.857Z,4.47
2023-05-25T01:21:00.548Z,5.53
2023-05-25T01:23:31.706Z,4.93
2023-05-25T01:26:00.573Z,5.57
2023-05-25T01:28:30.732Z,4.63
2023-05-25T01:30:58.186Z,4.53
2023-05-25T01:33:25.853Z,5.17
2023-05-25T01:35:53.280Z,5.13
2023-05-25T01:38:22.051Z,5.30
2023-05-25T01:40:49.502Z,5.53
2023-05-25T01:43:17.155Z,4.80
2023-05-25T01:45:44.680Z,5.17
2023-05-25T01:48:16.695Z,4.93
2023-05-25T01:50:49.591Z,4.30
2023-05-25T01:53:19.703Z,5.00
2023-05-25T01:55:54.466Z,5.03
2023-05-25T01:58:22.948Z,4.57
2023-05-25T02:00:51.586Z,5.07
2023-05-25T02:03:19.216Z,4.40
2023-05-25T02:05:47.876Z,4.57
2023-05-25T02:08:15.188Z,5.23
2023-05-25T02:10:42.573Z,4.87
2023-05-25T02:13:11.354Z,5.00
2023-05-25T02:15:38.699Z,4.53
2023-05-25T02:18:06.175Z,3.90
2023-05-25T02:20:33.500Z,4.10
2023-05-25T02:23:00.842Z,5.40
2023-05-25T02:25:28.194Z,4.60
2023-05-25T02:27:55.536Z,4.73
2023-05-25T02:30:24.255Z,5.00
2023-05-25T02:32:55.391Z,4.20
2023-05-25T02:35:22.784Z,4.07
2023-05-25T02:37:51.253Z,4.37
2023-05-25T02:40:18.895Z,4.20
2023-05-25T02:42:46.218Z,4.07
2023-05-25T02:45:13.568Z,4.93
2023-05-25T02:47:43.021Z,4.63
2023-05-25T02:50:10.885Z,4.00
2023-05-25T02:52:43.544Z,4.87
2023-05-25T02:55:11.091Z,4.80
2023-05-25T02:57:39.651Z,4.60
2023-05-25T03:00:09.051Z,3.80
2023-05-25T03:02:36.782Z,4.33
2023-05-25T03:05:06.380Z,4.83
2023-05-25T03:07:34.970Z,3.83
2023-05-25T03:10:02.311Z,4.80
2023-05-25T03:12:30.082Z,5.23
2023-05-25T03:14:57.543Z,4.43
2023-05-25T03:17:24.878Z,4.33
2023-05-25T03:19:52.669Z,4.30
2023-05-25T03:22:21.510Z,4.70
2023-05-25T03:24:48.841Z,4.37
2023-05-25T03:27:16.207Z,4.13
2023-05-25T03:29:43.568Z,4.67
2023-05-25T03:32:10.910Z,4.23
2023-05-25T03:34:39.200Z,4.10
2023-05-25T03:37:07.342Z,4.60
2023-05-25T03:39:36.705Z,5.33
2023-05-25T03:42:03.992Z,4.10
2023-05-25T03:44:31.464Z,4.17
2023-05-25T03:46:59.114Z,4.40
2023-05-25T03:49:26.361Z,4.83
2023-05-25T03:51:53.741Z,4.43
2023-05-25T03:54:21.030Z,4.70
2023-05-25T03:59:35.488Z,5.23
2023-05-25T04:02:03.878Z,4.80
2023-05-25T04:04:31.148Z,4.53
2023-05-25T04:06:59.054Z,4.93
2023-05-25T04:09:26.503Z,5.00
2023-05-25T04:11:55.130Z,4.57
2023-05-25T04:14:22.407Z,5.00
2023-05-25T04:16:49.951Z,5.20
2023-05-25T04:19:17.480Z,5.33
2023-05-25T04:21:44.927Z,6.27
2023-05-25T04:24:12.339Z,5.00
2023-05-25T04:26:40.417Z,5.07
2023-05-25T04:29:10.282Z,5.17
2023-05-25T04:31:57.561Z,5.57
2023-05-25T04:34:47.840Z,5.83
2023-05-25T04:37:20.319Z,5.33
2023-05-25T04:39:47.826Z,5.60
2023-05-25T04:42:15.208Z,5.47
2023-05-25T04:44:44.973Z,4.90
2023-05-25T04:47:12.367Z,5.90
2023-05-25T04:49:39.615Z,5.07
2023-05-25T04:52:08.790Z,5.33
2023-05-25T04:54:36.689Z,5.37
2023-05-25T04:57:04.102Z,4.57
2023-05-25T04:59:32.317Z,5.93
2023-05-25T05:02:01.706Z,6.33
2023-05-25T05:04:29.072Z,4.90
2023-05-25T05:06:58.821Z,4.90
2023-05-25T05:09:28.355Z,5.50
2023-05-25T05:11:57.724Z,5.63
2023-05-25T05:14:25.076Z,6.10
2023-05-25T05:16:53.488Z,6.13
2023-05-25T05:19:22.903Z,5.80
2023-05-25T05:21:50.246Z,5.90
2023-05-25T05:24:18.644Z,6.23
2023-05-25T05:26:57.812Z,7.10
2023-05-25T05:29:42.795Z,5.80
2023-05-25T05:32:10.157Z,5.80
2023-05-25T05:34:39.276Z,6.90
2023-05-25T05:37:13.923Z,6.00
2023-05-25T05:39:41.255Z,5.33
2023-05-25T05:42:08.625Z,5.77
2023-05-25T05:44:36.173Z,4.80
2023-05-25T05:47:03.506Z,4.50
2023-05-25T05:49:31.396Z,4.77
2023-05-25T05:52:01.457Z,5.20
2023-05-25T05:54:28.901Z,4.83
2023-05-25T05:56:59.404Z,5.23
2023-05-25T05:59:26.723Z,4.80
2023-05-25T06:01:54.153Z,3.97
2023-05-25T06:04:21.833Z,4.53
2023-05-25T06:06:49.106Z,4.97
2023-05-25T06:09:18.324Z,2.90
2023-05-25T06:11:45.660Z,5.07
2023-05-25T06:14:13.626Z,3.30
2023-05-25T06:16:41.936Z,4.90
2023-05-25T06:19:09.309Z,5.10
2023-05-25T06:21:36.607Z,5.87
2023-05-25T06:24:03.981Z,4.67
2023-05-25T06:26:32.647Z,4.90
2023-05-25T06:28:59.915Z,5.00
2023-05-25T06:31:27.304Z,4.90
2023-05-25T06:33:55.263Z,4.83
2023-05-25T06:36:23.072Z,5.60
2023-05-25T06:38:51.306Z,3.60
2023-05-25T06:41:19.202Z,4.60
2023-05-25T06:43:48.244Z,4.90
2023-05-25T06:46:24.260Z,4.57
2023-05-25T06:48:52.081Z,5.23
2023-05-25T06:51:19.522Z,4.57
2023-05-25T06:57:42.170Z,4.07
2023-05-25T07:00:11.978Z,3.37
2023-05-25T07:02:39.385Z,5.00
2023-05-25T07:05:07.251Z,4.47
2023-05-25T07:07:34.787Z,4.80
2023-05-25T07:10:02.495Z,4.10
2023-05-25T07:12:45.485Z,4.60
2023-05-25T07:15:14.229Z,4.33
2023-05-25T07:17:41.889Z,3.93
2023-05-25T07:20:09.922Z,4.40
2023-05-25T07:29:13.914Z,3.77
2023-05-25T07:31:42.823Z,3.43
2023-05-25T07:34:10.222Z,3.57
2023-05-25T07:36:37.495Z,3.27
2023-05-25T07:39:04.918Z,3.77
2023-05-25T07:41:32.230Z,4.23
2023-05-25T08:57:55.534Z,3.60
2023-05-25T09:00:26.005Z,4.27
2023-05-25T09:02:58.801Z,3.33
2023-05-25T09:05:26.664Z,3.23
2023-05-25T09:29:13.925Z,3.73
2023-05-25T09:31:41.477Z,3.90
2023-05-25T09:34:12.326Z,4.20
2023-05-25T09:36:52.539Z,4.20
2023-05-25T09:42:49.325Z,3.90
2023-05-25T09:45:18.149Z,4.47
2023-05-25T09:47:45.468Z,3.90
2023-05-25T09:50:12.778Z,3.30
2023-05-25T09:52:40.086Z,3.40
2023-05-25T09:55:09.725Z,3.40
2023-05-25T09:57:37.203Z,3.77
2023-05-25T10:00:04.641Z,2.73
2023-05-25T10:02:40.349Z,3.20
2023-05-25T10:05:07.963Z,3.50
2023-05-25T10:07:41.707Z,3.87
2023-05-25T10:10:27.685Z,3.20
2023-05-25T10:12:56.316Z,4.57
2023-05-25T10:15:23.921Z,3.90
2023-05-25T10:17:54.546Z,4.53
2023-05-25T10:20:23.346Z,4.47
2023-05-25T10:22:53.135Z,4.37
2023-05-25T10:28:04.871Z,3.93
2023-05-25T10:30:33.423Z,4.27
2023-05-25T10:33:03.178Z,4.07
2023-05-25T10:35:42.492Z,4.00
2023-05-25T10:38:26.180Z,3.83
2023-05-25T10:41:10.015Z,3.90
2023-05-25T10:43:37.931Z,3.93
2023-05-25T10:46:05.972Z,3.97
2023-05-25T10:48:47.557Z,3.63
2023-05-25T10:51:15.037Z,4.27
2023-05-25T10:53:44.705Z,4.73
2023-05-25T10:56:18.425Z,3.60
2023-05-25T10:58:47.034Z,3.23
2023-05-25T11:01:15.489Z,4.13
2023-05-25T11:03:51.254Z,4.43
2023-05-25T11:10:09.496Z,4.73
2023-05-25T11:12:36.775Z,4.53
2023-05-25T11:15:14.262Z,4.50
2023-05-25T11:17:58.380Z,3.70
2023-05-25T11:20:28.097Z,4.03
2023-05-25T11:22:57.406Z,4.80
2023-05-25T11:25:37.784Z,4.10
2023-05-25T11:28:05.824Z,4.17
2023-05-25T11:30:33.428Z,4.33
2023-05-25T11:33:02.709Z,4.67
2023-05-25T11:35:37.495Z,4.17
2023-05-25T11:38:11.099Z,4.00
2023-05-25T11:40:47.466Z,3.97
2023-05-25T11:43:15.173Z,3.17
2023-05-25T11:45:42.424Z,4.67
2023-05-25T11:48:14.009Z,3.73
2023-05-25T11:50:42.840Z,4.50
2023-05-25T11:53:10.256Z,3.47
2023-05-25T11:55:37.986Z,4.07
2023-05-25T11:58:05.430Z,6.00
2023-05-25T12:00:32.753Z,3.23
2023-05-25T12:03:00.142Z,3.77
2023-05-25T12:05:37.629Z,3.93
2023-05-25T12:08:06.291Z,3.40
2023-05-25T12:10:33.590Z,3.90
2023-05-25T12:13:04.009Z,3.13
2023-05-25T12:15:36.985Z,3.90
2023-05-25T12:18:04.444Z,3.87
2023-05-25T12:20:31.852Z,3.40
2023-05-25T12:22:59.364Z,4.40
2023-05-25T12:25:38.578Z,4.07
2023-05-25T12:31:21.822Z,2.97
2023-05-25T12:34:03.066Z,3.60
2023-05-25T12:36:37.016Z,2.50
2023-05-25T12:39:04.787Z,3.63
2023-05-25T12:41:42.887Z,3.27
2023-05-25T12:51:06.259Z,2.20
2023-05-25T12:53:46.744Z,2.80
2023-05-25T12:56:29.595Z,4.03
2023-05-25T12:59:14.603Z,3.70
2023-05-25T13:01:41.917Z,3.20
2023-05-25T13:04:12.648Z,3.23
2023-05-25T13:06:39.892Z,2.97
2023-05-25T13:09:07.262Z,2.90
2023-05-25T13:11:34.588Z,3.10
2023-05-25T13:17:36.527Z,3.30
2023-05-25T13:20:04.318Z,3.30
2023-05-25T13:22:31.584Z,2.47
2023-05-25T13:24:58.869Z,2.93
2023-05-25T13:27:26.591Z,3.40
2023-05-25T13:29:55.228Z,4.83
2023-05-25T13:32:35.701Z,4.17
2023-05-25T13:35:03.511Z,4.70
2023-05-25T13:37:30.910Z,3.97
2023-05-25T13:39:58.591Z,3.03
2023-05-25T13:45:39.237Z,4.00
2023-05-25T14:19:35.819Z,5.63
2023-05-25T14:22:13.407Z,4.37
2023-05-25T14:24:42.003Z,5.40
2023-05-25T14:27:09.605Z,4.83
2023-05-25T14:29:37.019Z,5.07
2023-05-25T14:34:55.128Z,5.03
2023-05-25T14:37:22.596Z,4.23
2023-05-25T14:39:50.586Z,4.57
2023-05-25T14:42:18.220Z,4.37
2023-05-25T14:44:45.483Z,4.60
2023-05-25T14:47:35.471Z,4.80
2023-05-25T14:53:55.473Z,4.83
2023-05-25T14:56:22.896Z,4.87
2023-05-25T14:58:50.338Z,4.20
2023-05-25T15:01:17.732Z,5.37
2023-05-25T15:03:45.498Z,5.20
2023-05-25T15:09:12.375Z,5.00
2023-05-25T15:11:39.715Z,3.97
2023-05-25T15:14:06.977Z,5.17
2023-05-25T15:16:34.389Z,5.33
2023-05-25T15:19:01.894Z,4.87
2023-05-25T15:21:30.694Z,5.50
2023-05-25T15:23:58.026Z,4.43
2023-05-25T15:26:33.183Z,5.37
2023-05-25T15:29:00.558Z,5.33
2023-05-25T15:31:27.800Z,4.53
2023-05-25T15:33:58.735Z,5.47
2023-05-25T15:36:33.778Z,4.90
2023-05-25T15:39:01.202Z,5.43
2023-05-25T15:41:28.802Z,4.10
2023-05-25T15:43:57.548Z,5.23
2023-05-25T15:46:24.856Z,4.97
2023-05-25T15:48:52.202Z,5.47
2023-05-25T15:51:41.480Z,6.13
2023-05-25T15:56:36.555Z,6.10
2023-05-25T15:59:06.003Z,5.90
2023-05-25T16:01:48.843Z,6.13
2023-05-25T16:04:40.918Z,5.90
2023-05-25T16:07:08.287Z,5.60
2023-05-25T16:09:35.600Z,5.73
2023-05-25T16:12:02.889Z,6.30
2023-05-25T16:14:46.702Z,5.47
2023-05-25T16:17:14.516Z,5.63
2023-05-25T16:19:42.183Z,6.13
2023-05-25T16:22:09.728Z,5.57
2023-05-25T16:24:37.019Z,5.03
2023-05-25T16:27:04.559Z,5.00
2023-05-25T16:29:32.018Z,5.00
2023-05-25T16:32:21.918Z,5.70
2023-05-25T16:35:08.421Z,5.97
2023-05-25T16:37:37.382Z,4.50
2023-05-25T16:40:04.915Z,4.63
2023-05-25T16:42:32.165Z,6.27
2023-05-25T16:44:59.438Z,5.87
2023-05-25T16:47:26.728Z,5.37
2023-05-25T16:49:53.987Z,5.27
2023-05-25T16:52:21.306Z,5.27
2023-05-25T16:54:49.872Z,5.73
2023-05-25T16:57:17.333Z,5.53
2023-05-25T16:59:44.637Z,4.57
2023-05-25T17:02:11.921Z,4.50
2023-05-25T17:04:39.219Z,5.93
2023-05-25T17:07:06.555Z,5.57
2023-05-25T17:09:33.851Z,5.80
2023-05-25T17:12:02.474Z,5.13
2023-05-25T17:14:29.897Z,6.30
2023-05-25T17:16:57.218Z,5.73
2023-05-25T17:19:24.511Z,6.17
2023-05-25T17:21:51.787Z,5.77
2023-05-25T17:24:19.035Z,6.47
2023-05-25T17:26:46.343Z,5.07
2023-05-25T17:29:14.935Z,4.23
2023-05-25T17:31:42.280Z,5.53
2023-05-25T17:34:09.677Z,5.57
2023-05-25T17:36:36.897Z,6.37
2023-05-25T17:39:04.275Z,5.63
2023-05-25T17:41:31.551Z,5.13
2023-05-25T17:43:58.814Z,5.17
2023-05-25T17:46:27.575Z,5.90
2023-05-25T17:48:54.997Z,6.57
2023-05-25T17:51:22.373Z,5.10
2023-05-25T17:53:49.772Z,4.73
2023-05-25T17:56:17.425Z,4.63
2023-05-25T17:58:44.968Z,5.80
2023-05-25T18:01:12.346Z,6.33
2023-05-25T18:03:41.162Z,4.30
2023-05-25T18:06:08.787Z,5.93
2023-05-25T18:08:35.996Z,4.60
2023-05-25T18:11:03.909Z,5.17
2023-05-25T18:13:31.178Z,4.60
2023-05-25T18:15:58.465Z,4.13
2023-05-25T18:18:25.710Z,4.20
2023-05-25T18:20:54.361Z,5.67
2023-05-25T18:23:21.629Z,5.53
2023-05-25T18:25:48.900Z,5.23
2023-05-25T18:28:16.205Z,6.00
2023-05-25T18:30:43.664Z,5.30
2023-05-25T18:33:11.027Z,5.13
2023-05-25T18:35:38.620Z,5.97
2023-05-25T18:38:07.322Z,5.70
2023-05-25T18:40:34.594Z,5.33
2023-05-25T18:43:01.890Z,5.17
2023-05-25T18:45:29.204Z,5.97
2023-05-25T18:47:56.476Z,5.37
2023-05-25T19:12:59.977Z,5.10
2023-05-25T19:15:27.351Z,4.70
2023-05-25T19:17:54.746Z,6.60
2023-05-25T19:20:22.018Z,5.60
2023-05-25T19:22:49.405Z,5.40
2023-05-25T19:25:31.902Z,6.07
2023-05-25T19:28:00.620Z,5.33
2023-05-25T19:30:27.910Z,5.67
2023-05-25T19:32:55.295Z,5.70
2023-05-25T19:35:26.542Z,4.97
2023-05-25T19:41:34.456Z,5.37
2023-05-25T19:44:03.070Z,6.03
2023-05-25T19:46:30.447Z,6.07
2023-05-25T19:48:57.757Z,5.40
2023-05-25T19:51:25.093Z,4.63
2023-05-25T19:53:52.477Z,4.77
2023-05-25T19:56:19.799Z,5.07
2023-05-25T19:58:47.093Z,4.97
2023-05-25T20:01:15.819Z,4.93
2023-05-25T20:03:43.407Z,5.33
2023-05-25T20:06:10.914Z,5.13
2023-05-25T20:08:38.347Z,5.10
2023-05-25T20:11:05.754Z,5.43
2023-05-25T20:13:33.042Z,6.63
2023-05-25T20:16:00.319Z,5.30
2023-05-25T20:18:29.028Z,5.87
2023-05-25T20:20:56.353Z,5.30
2023-05-25T20:23:23.679Z,5.60
2023-05-25T20:25:51.024Z,4.67
2023-05-25T20:28:18.438Z,5.70
2023-05-25T20:30:45.890Z,5.23
2023-05-25T20:33:13.255Z,5.47
2023-05-25T20:35:41.950Z,5.23
2023-05-25T20:38:09.338Z,5.90
2023-05-25T20:40:36.602Z,4.23
2023-05-25T20:43:04.043Z,5.13
2023-05-25T20:45:32.399Z,5.37
2023-05-25T20:48:00.036Z,5.37
2023-05-25T20:50:27.342Z,4.97
2023-05-25T20:52:56.193Z,6.37
2023-05-25T20:55:23.489Z,5.57
2023-05-25T20:57:50.734Z,6.27
2023-05-25T21:00:18.359Z,5.63
2023-05-25T21:02:45.762Z,5.30
2023-05-25T21:05:13.075Z,5.63
2023-05-25T21:07:40.393Z,5.00
2023-05-25T21:10:09.896Z,4.93
2023-05-25T21:12:37.179Z,4.83
2023-05-25T21:15:04.693Z,5.23
2023-05-25T21:17:32.033Z,5.03
2023-05-25T21:19:59.358Z,4.53
2023-05-25T21:22:26.618Z,5.17
2023-05-25T21:24:53.966Z,5.80
2023-05-25T21:27:22.652Z,6.00
2023-05-25T21:29:50.056Z,3.97
2023-05-25T21:32:17.402Z,5.60
2023-05-25T21:34:44.777Z,4.73
2023-05-25T21:37:12.115Z,5.40
2023-05-25T21:39:39.362Z,5.17
2023-05-25T21:42:06.840Z,5.67
2023-05-25T21:44:35.536Z,6.33
2023-05-25T21:47:02.999Z,4.90
2023-05-25T21:49:30.351Z,5.00
2023-05-25T21:51:57.670Z,6.57
2023-05-25T21:54:25.347Z,5.20
2023-05-25T21:56:52.908Z,5.57
2023-05-25T21:59:20.213Z,4.47
2023-05-25T22:01:48.927Z,5.00
2023-05-25T22:04:16.251Z,4.90
2023-05-25T22:06:43.503Z,5.50
2023-05-25T22:09:10.855Z,5.50
2023-05-25T22:11:38.099Z,5.87
2023-05-25T22:14:05.376Z,4.67
2023-05-25T22:16:32.741Z,5.97
2023-05-25T22:19:01.344Z,5.40
2023-05-25T22:21:28.748Z,5.73
2023-05-25T22:23:56.003Z,5.53
2023-05-25T22:26:23.385Z,5.57
2023-05-25T22:28:50.678Z,4.63
2023-05-25T22:31:18.053Z,5.47
2023-05-25T22:33:45.367Z,5.40
2023-05-25T22:36:14.061Z,5.07
2023-05-25T22:38:41.323Z,4.57
2023-05-25T22:41:08.940Z,6.43
2023-05-25T22:43:36.235Z,4.83
2023-05-25T22:46:03.546Z,5.23
2023-05-25T22:48:31.280Z,5.77
2023-05-25T22:50:58.746Z,5.00
2023-05-25T22:53:27.394Z,6.50
2023-05-25T22:55:54.662Z,4.90
2023-05-25T22:58:22.077Z,5.33
2023-05-25T23:00:49.363Z,6.30
2023-05-25T23:03:18.770Z,4.83
2023-05-25T23:05:46.473Z,5.70
2023-05-25T23:08:14.014Z,4.77
2023-05-25T23:10:42.654Z,5.40
2023-05-25T23:13:10.045Z,4.73
2023-05-25T23:15:37.387Z,4.60
2023-05-25T23:18:05.194Z,4.93
2023-05-25T23:20:32.603Z,5.03
2023-05-25T23:23:00.735Z,4.67
2023-05-25T23:25:28.014Z,5.43
2023-05-25T23:27:58.977Z,4.57
2023-05-25T23:30:29.223Z,5.00
2023-05-25T23:32:56.605Z,5.43
2023-05-25T23:35:23.918Z,6.03
2023-05-25T23:37:51.239Z,5.03
2023-05-25T23:40:18.769Z,5.30
2023-05-25T23:42:46.009Z,4.93
2023-05-25T23:45:14.665Z,4.53
2023-05-25T23:47:41.993Z,4.87
2023-05-25T23:50:09.644Z,5.43
2023-05-25T23:52:37.004Z,5.90
2023-05-25T23:57:46.799Z,5.00
